Nearby METAR Reports

 

KGRB - Ashwaubenon, Wisconsin, USA
Distance from station: WSW 10mi, 16km
Updated: 06/24/2018 12:53am
Clear
Clear
 Wind from N
Wind: N 3 mph , 6 km/h
Temperature: 64°F , 18°C
Dew Point: 61°F , 16°C
Humidity: 88%
Barometer: 29.83 inHg , 1010.2 hPa
Clouds: Clear
Visibility: 10 miles , 16 km
2018/06/24 05:53 KGRB 240553Z AUTO 01003KT 10SM CLR 18/16 A2983 RMK AO2 SLP098 T01780156 10233 20172 402500122 51009
KOCQ - Oconto, Wisconsin, USA
Distance from station: N 24mi, 39km
Updated: 06/24/2018 1:35am
Clear
Clear
 Wind from NNE
Wind: NNE 3 mph , 6 km/h
Temperature: 61°F , 16°C
Dew Point: 59°F , 15°C
Humidity: 94%
Barometer: 29.83 inHg , 1010.2 hPa
Clouds: Clear
Visibility: 10 miles , 16 km
2018/06/24 06:35 KOCQ 240635Z AUTO 02003KT 10SM CLR 16/15 A2983 RMK AO1 T01570148
KMTW - Manitowac Muni, Wisconsin, USA
Distance from station: SSE 31mi, 49km
Updated: 06/24/2018 12:56am
Clear
Clear
 Wind from calm
Wind: Calm
Temperature: 64°F , 18°C
Dew Point: 61°F , 16°C
Humidity: 88%
Barometer: 29.82 inHg , 1009.8 hPa
Clouds: Clear
Visibility: 10 miles , 16 km
2018/06/24 05:56 KMTW 240556Z AUTO 00000KT 10SM CLR 18/16 A2982 RMK AO2 SLP111 6//// T01780156 10228 20167 402280122 50002
 
KATW - Appleton/Outagam, Wisconsin, USA
Distance from station: WSW 33mi, 54km
Updated: 06/24/2018 1:35am
Clear
Clear
 Wind from calm
Wind: Calm
Temperature: 64°F , 18°C
Dew Point: 55°F , 13°C
Humidity: 73%
Barometer: 29.82 inHg , 1009.8 hPa
Clouds: Clear
Visibility: 10 miles , 16 km
2018/06/24 06:35 KATW 240635Z AUTO 00000KT 10SM CLR 18/13 A2982 RMK AO2
KSUE - Sturgeon Bay, Wisconsin, USA
Distance from station: NE 34mi, 55km
Updated: 06/24/2018 12:56am
Mostly cloudy
Mostly cloudy
 Wind from N
Wind: N 3 mph , 6 km/h
Temperature: 61°F , 16°C
Dew Point: 61°F , 16°C
Humidity: 100%
Barometer: 29.84 inHg , 1010.5 hPa
Clouds: Mostly cloudy
Visibility: 10 miles , 16 km
Cloud details: Mostly cloudy 4800 ft
Mostly cloudy 12000 ft
2018/06/24 05:56 KSUE 240556Z AUTO 01003KT 10SM BKN048 BKN120 16/16 A2984 RMK AO2 SLP120 T01610156 10217 20161 402280111 50009
KEZS - Shawano Muni, Wisconsin, USA
Distance from station: WNW 36mi, 58km
Updated: 06/24/2018 1:35am
Clear
Clear
 Wind from calm
Wind: Calm
Temperature: 63°F , 17°C
Dew Point: 59°F , 15°C
Humidity: 88%
Barometer: 29.84 inHg , 1010.5 hPa
Clouds: Clear
Visibility: 10 miles , 16 km
2018/06/24 06:35 KEZS 240635Z AUTO 00000KT 10SM CLR 17/15 A2984 RMK AO2 T01710149
 
KCLI - Clintonville, Wisconsin, USA
Distance from station: W 40mi, 64km
Updated: 06/20/2018 7:40am
NOT Current
Overcast
Overcast
 Wind from NNE
Wind: NNE 5 mph , 7 km/h
Temperature: 64°F , 18°C
Dew Point: 59°F , 15°C
Humidity: 83%
Barometer: 29.94 inHg , 1013.9 hPa
Clouds: Overcast
Visibility: 10 miles , 16 km
Cloud details: Partly cloudy 5500 ft
Overcast 11000 ft
2018/06/20 12:40 KCLI 201240Z AUTO 02004KT 10SM SCT055 OVC110 18/15 A2994 RMK AO2 T01750148
KMNM - Menominee, Michigan, USA
Distance from station: NNE 44mi, 72km
Updated: 06/24/2018 12:56am
Clear
Clear
 Wind from NE
Wind: NE 5 mph , 7 km/h
Temperature: 61°F , 16°C
Dew Point: 59°F , 15°C
Humidity: 94%
Barometer: 29.84 inHg , 1010.5 hPa
Clouds: Clear
Visibility: 9 miles , 14 km
2018/06/24 05:56 KMNM 240556Z AUTO 04004KT 9SM CLR 16/15 A2984 RMK AO2 SLP120 T01560150 10222 20156 51011 $
KOSH - Oshkosh, Wisconsin, USA
Distance from station: SW 49mi, 78km
Updated: 06/24/2018 12:53am
Clear
Clear
 Wind from SW
Wind: SW 3 mph , 6 km/h
Temperature: 68°F , 20°C
Dew Point: 57°F , 14°C
Humidity: 69%
Barometer: 29.82 inHg , 1009.8 hPa
Clouds: Clear
Visibility: 10 miles , 16 km
2018/06/24 05:53 KOSH 240553Z AUTO 23003KT 10SM CLR 20/14 A2982 RMK AO2 SLP085 60000 T02000144 10244 20194 402560139 51006